createdAt,value
2018-12-21T00:05:00.392Z,16.87
2018-12-21T00:13:12.654Z,18.07
2018-12-21T00:15:48.979Z,19.57
2018-12-21T00:18:21.205Z,16.63
2018-12-21T00:20:51.734Z,20.40
2018-12-21T00:23:57.180Z,18.63
2018-12-21T00:26:35.982Z,10.30
2018-12-21T00:32:06.772Z,16.47
2018-12-21T00:34:49.663Z,17.77
2018-12-21T00:37:26.193Z,16.87
2018-12-21T00:40:13.051Z,20.63
2018-12-21T00:42:57.302Z,16.43
2018-12-21T00:45:52.398Z,26.07
2018-12-21T00:48:30.378Z,15.93
2018-12-21T00:50:59.629Z,21.87
2018-12-21T00:53:31.387Z,12.73
2018-12-21T00:56:12.955Z,20.63
2018-12-21T00:58:51.242Z,15.63
2018-12-21T01:01:31.185Z,15.97
2018-12-21T01:04:10.473Z,11.63
2018-12-21T01:09:58.804Z,20.40
2018-12-21T01:12:31.425Z,10.93
2018-12-21T01:15:09.198Z,13.73
2018-12-21T01:17:42.379Z,17.50
2018-12-21T01:20:23.209Z,17.97
2018-12-21T01:22:53.283Z,19.73
2018-12-21T01:25:22.194Z,9.13
2018-12-21T01:27:51.977Z,12.03
2018-12-21T01:30:21.396Z,12.23
2018-12-21T01:32:50.597Z,21.30
2018-12-21T01:35:21.581Z,12.80
2018-12-21T01:37:50.737Z,21.20
2018-12-21T01:40:21.496Z,13.73
2018-12-21T01:42:52.668Z,13.63
2018-12-21T01:45:21.820Z,12.80
2018-12-21T01:47:50.763Z,11.50
2018-12-21T01:50:21.911Z,11.10
2018-12-21T01:52:50.770Z,15.00
2018-12-21T01:55:19.598Z,10.60
2018-12-21T01:57:52.060Z,13.07
2018-12-21T02:00:20.945Z,12.07
2018-12-21T02:02:50.580Z,10.10
2018-12-21T02:05:21.235Z,16.23
2018-12-21T02:07:50.570Z,11.13
2018-12-21T02:10:20.599Z,15.83
2018-12-21T02:12:49.753Z,22.30
2018-12-21T02:15:20.637Z,9.63
2018-12-21T02:17:51.425Z,13.57
2018-12-21T02:20:21.245Z,15.73
2018-12-21T02:22:50.577Z,13.63
2018-12-21T02:28:07.887Z,14.37
2018-12-21T02:30:38.497Z,14.30
2018-12-21T02:33:08.684Z,11.30
2018-12-21T02:35:39.189Z,10.87
2018-12-21T02:38:08.958Z,10.63
2018-12-21T02:40:37.735Z,14.00
2018-12-21T02:43:07.395Z,17.50
2018-12-21T02:45:40.782Z,11.10
2018-12-21T02:48:10.523Z,16.33
2018-12-21T02:50:41.951Z,15.53
2018-12-21T02:53:11.557Z,13.70
2018-12-21T02:55:41.149Z,11.67
2018-12-21T02:58:12.197Z,20.70
2018-12-21T03:00:42.044Z,17.00
2018-12-21T03:03:11.413Z,21.77
2018-12-21T03:05:42.363Z,19.40
2018-12-21T03:08:12.071Z,19.73
2018-12-21T03:10:43.121Z,15.97
2018-12-21T03:13:13.320Z,16.93
2018-12-21T03:15:42.947Z,10.90
2018-12-21T03:18:13.997Z,12.50
2018-12-21T03:20:44.724Z,14.73
2018-12-21T03:23:21.715Z,14.83
2018-12-21T03:28:45.025Z,9.60
2018-12-21T03:31:22.406Z,9.53
2018-12-21T03:33:53.403Z,18.43
2018-12-21T03:36:32.666Z,17.03
2018-12-21T03:39:09.874Z,10.20
2018-12-21T03:44:28.418Z,17.43
2018-12-21T03:47:05.276Z,13.43
2018-12-21T03:49:35.262Z,15.93
2018-12-21T03:52:05.046Z,11.83
2018-12-21T03:54:40.516Z,21.47
2018-12-21T03:57:10.480Z,20.50
2018-12-21T03:59:39.312Z,16.83
2018-12-21T04:02:13.695Z,19.70
2018-12-21T04:04:42.494Z,13.73
2018-12-21T04:07:11.346Z,17.93
2018-12-21T04:09:40.265Z,18.40
2018-12-21T04:12:09.066Z,23.27
2018-12-21T04:14:40.010Z,13.73
2018-12-21T04:17:13.962Z,13.37
2018-12-21T04:19:54.120Z,13.47
2018-12-21T04:22:33.771Z,16.30
2018-12-21T04:25:00.871Z,20.03
2018-12-21T04:27:32.923Z,23.20
2018-12-21T04:30:04.981Z,12.67
2018-12-21T04:32:36.464Z,13.43
2018-12-21T04:35:10.980Z,15.73
2018-12-21T04:37:49.895Z,15.10
2018-12-21T04:43:10.333Z,18.60
2018-12-21T04:45:41.019Z,11.97
2018-12-21T04:48:14.362Z,16.30
2018-12-21T04:50:45.014Z,14.33
2018-12-21T04:53:31.599Z,13.37
2018-12-21T04:56:06.861Z,18.47
2018-12-21T04:58:38.876Z,15.90
2018-12-21T05:01:12.597Z,11.47
2018-12-21T05:03:48.044Z,17.50
2018-12-21T05:06:18.673Z,15.63
2018-12-21T05:08:49.870Z,16.73
2018-12-21T05:11:27.286Z,11.57
2018-12-21T05:13:57.299Z,9.23
2018-12-21T05:16:30.770Z,11.83
2018-12-21T05:19:02.615Z,7.83
2018-12-21T05:21:33.655Z,11.17
2018-12-21T05:24:06.581Z,9.77
2018-12-21T05:26:38.797Z,11.70
2018-12-21T05:29:17.237Z,13.77
2018-12-21T05:31:48.007Z,9.97
2018-12-21T05:34:18.362Z,10.27
2018-12-21T05:39:24.755Z,10.87
2018-12-21T05:42:00.720Z,11.57
2018-12-21T05:47:18.769Z,14.57
2018-12-21T05:49:52.159Z,10.00
2018-12-21T05:52:27.407Z,11.73
2018-12-21T05:54:59.590Z,11.57
2018-12-21T05:57:32.295Z,10.00
2018-12-21T06:02:40.886Z,11.27
2018-12-21T06:05:11.950Z,9.43
2018-12-21T06:07:44.113Z,10.57
2018-12-21T06:10:21.450Z,11.97
2018-12-21T06:12:54.680Z,10.00
2018-12-21T06:15:25.954Z,11.87
2018-12-21T06:18:01.188Z,12.43
2018-12-21T06:20:39.274Z,11.03
2018-12-21T06:26:00.581Z,7.97
2018-12-21T06:28:30.317Z,9.17
2018-12-21T06:31:03.759Z,8.53
2018-12-21T06:33:33.025Z,7.00
2018-12-21T06:36:01.931Z,11.67
2018-12-21T06:38:33.179Z,7.77
2018-12-21T06:41:09.168Z,10.00
2018-12-21T06:43:39.181Z,7.03
2018-12-21T06:46:14.188Z,10.27
2018-12-21T06:51:20.613Z,5.80
2018-12-21T06:53:56.759Z,6.63
2018-12-21T06:56:25.558Z,7.50
2018-12-21T06:58:55.104Z,8.43
2018-12-21T07:01:26.161Z,7.50
2018-12-21T07:03:55.016Z,8.67
2018-12-21T07:06:28.284Z,8.53
2018-12-21T07:09:12.652Z,7.67
2018-12-21T07:11:43.994Z,10.40
2018-12-21T07:14:14.961Z,9.27
2018-12-21T07:16:51.824Z,11.60
2018-12-21T07:19:26.371Z,12.10
2018-12-21T07:22:00.910Z,8.73
2018-12-21T07:24:30.465Z,10.53
2018-12-21T07:27:02.300Z,12.50
2018-12-21T07:29:36.889Z,12.00
2018-12-21T07:32:06.572Z,17.33
2018-12-21T07:34:40.469Z,10.53
2018-12-21T07:37:15.991Z,11.63
2018-12-21T07:40:01.575Z,14.03
2018-12-21T07:42:36.073Z,14.37
2018-12-21T07:47:59.109Z,18.80
2018-12-21T07:53:13.431Z,18.30
2018-12-21T08:01:23.160Z,19.10
2018-12-21T08:03:54.072Z,18.40
2018-12-21T08:09:20.196Z,20.30
2018-12-21T08:11:57.299Z,18.10
2018-12-21T08:14:53.804Z,18.30
2018-12-21T08:17:28.872Z,21.30
2018-12-21T08:25:35.358Z,16.43
2018-12-21T08:28:08.620Z,20.07
2018-12-21T08:33:39.403Z,20.10
2018-12-21T08:36:10.263Z,19.00
2018-12-21T08:38:39.057Z,18.80
2018-12-21T08:41:07.883Z,21.77
2018-12-21T08:43:36.663Z,17.00
2018-12-21T08:46:05.533Z,18.47
2018-12-21T08:48:34.334Z,17.87
2018-12-21T08:51:04.131Z,19.90
2018-12-21T08:53:33.210Z,21.57
2018-12-21T08:56:02.036Z,19.30
2018-12-21T08:58:31.369Z,19.63
2018-12-21T09:01:00.132Z,20.03
2018-12-21T09:03:29.226Z,19.73
2018-12-21T09:05:59.643Z,19.43
2018-12-21T09:08:38.657Z,17.77
2018-12-21T09:11:08.728Z,15.60
2018-12-21T09:13:49.088Z,18.57
2018-12-21T09:16:19.415Z,16.63
2018-12-21T09:24:18.677Z,19.53
2018-12-21T09:29:36.692Z,13.40
2018-12-21T09:32:09.403Z,14.93
2018-12-21T09:34:39.227Z,14.17
2018-12-21T09:37:09.236Z,11.80
2018-12-21T09:39:51.016Z,9.80
2018-12-21T09:42:19.960Z,11.73
2018-12-21T09:44:52.868Z,7.93
2018-12-21T09:47:32.125Z,10.27
2018-12-21T09:50:07.336Z,10.53
2018-12-21T09:52:37.812Z,11.03
2018-12-21T09:55:12.307Z,9.53
2018-12-21T09:57:41.198Z,8.73
2018-12-21T10:00:11.609Z,9.50
2018-12-21T10:02:41.201Z,10.87
2018-12-21T10:05:14.697Z,12.90
2018-12-21T10:07:43.687Z,16.23
2018-12-21T10:10:12.540Z,13.70
2018-12-21T10:12:42.225Z,9.53
2018-12-21T10:15:14.877Z,10.90
2018-12-21T10:17:51.808Z,21.77
2018-12-21T10:20:36.524Z,24.17
2018-12-21T10:25:51.872Z,20.20
2018-12-21T10:28:32.019Z,10.60
2018-12-21T10:33:52.136Z,12.87
2018-12-21T10:36:23.621Z,24.30
2018-12-21T10:38:52.421Z,29.37
2018-12-21T10:41:21.322Z,18.00
2018-12-21T10:43:50.771Z,21.33
2018-12-21T10:46:32.509Z,22.33
2018-12-21T10:49:09.084Z,21.23
2018-12-21T10:51:44.616Z,7.40
2018-12-21T10:54:17.123Z,15.17
2018-12-21T10:56:48.899Z,20.87
2018-12-21T10:59:30.992Z,23.13
2018-12-21T11:02:10.934Z,17.73
2018-12-21T11:07:26.850Z,18.87
2018-12-21T11:10:03.720Z,31.30
2018-12-21T11:12:40.474Z,19.53
2018-12-21T11:15:15.335Z,32.23
2018-12-21T11:17:53.506Z,22.50
2018-12-21T11:20:24.550Z,14.17
2018-12-21T11:23:06.054Z,24.20
2018-12-21T11:28:25.930Z,26.73
2018-12-21T11:33:54.057Z,21.03
2018-12-21T11:36:31.167Z,16.93
2018-12-21T11:39:06.416Z,15.50
2018-12-21T11:41:46.160Z,49.83
2018-12-21T11:44:22.116Z,18.50
2018-12-21T11:46:56.227Z,17.23
2018-12-21T11:49:34.669Z,27.50
2018-12-21T11:52:09.272Z,18.30
2018-12-21T11:54:46.956Z,27.23
2018-12-21T11:57:15.826Z,35.10
2018-12-21T12:02:32.556Z,26.53
2018-12-21T12:05:13.636Z,21.80
2018-12-21T12:07:46.562Z,18.83
2018-12-21T12:10:22.952Z,27.40
2018-12-21T12:13:02.029Z,29.83
2018-12-21T12:15:42.457Z,22.00
2018-12-21T12:29:40.775Z,17.00
2018-12-21T12:35:26.007Z,22.62
2018-12-21T12:38:05.565Z,20.03
2018-12-21T12:43:32.385Z,29.27
2018-12-21T12:46:25.234Z,19.90
2018-12-21T12:49:02.439Z,18.80
2018-12-21T12:51:34.037Z,18.50
2018-12-21T12:56:21.688Z,28.73
2018-12-21T12:58:57.365Z,30.47
2018-12-21T13:01:39.854Z,37.87
2018-12-21T13:07:14.461Z,25.77
2018-12-21T13:09:45.918Z,16.53
2018-12-21T13:15:20.533Z,26.93
2018-12-21T13:17:51.947Z,15.93
2018-12-21T13:20:33.125Z,25.67
2018-12-21T13:23:18.609Z,22.60
2018-12-21T13:25:55.382Z,23.53
2018-12-21T13:28:36.058Z,19.17
2018-12-21T13:33:48.852Z,23.70
2018-12-21T13:36:37.134Z,25.60
2018-12-21T13:42:07.924Z,23.07
2018-12-21T13:44:37.842Z,25.90
2018-12-21T13:47:10.769Z,24.37
2018-12-21T13:55:23.347Z,29.93
2018-12-21T14:00:51.608Z,24.00
2018-12-21T14:03:33.234Z,27.37
2018-12-21T14:06:04.153Z,14.57
2018-12-21T14:08:36.203Z,17.83
2018-12-21T14:11:12.292Z,24.60
2018-12-21T14:13:54.121Z,23.30
2018-12-21T14:16:33.663Z,37.90
2018-12-21T14:27:41.063Z,30.90
2018-12-21T14:30:23.513Z,30.17
2018-12-21T14:33:01.395Z,37.33
2018-12-21T14:35:40.585Z,39.10
2018-12-21T14:43:58.836Z,37.70
2018-12-21T14:46:41.618Z,55.90
2018-12-21T14:49:10.685Z,41.13
2018-12-21T14:51:41.787Z,35.03
2018-12-21T14:54:14.133Z,35.80
2018-12-21T14:56:42.918Z,38.43
2018-12-21T14:59:11.744Z,48.67
2018-12-21T15:01:41.236Z,46.93
2018-12-21T15:07:00.176Z,48.80
2018-12-21T15:09:39.377Z,51.93
2018-12-21T15:12:19.539Z,42.80
2018-12-21T15:14:53.806Z,42.17
2018-12-21T15:17:28.256Z,61.37
2018-12-21T15:19:58.161Z,44.07
2018-12-21T15:22:38.848Z,37.20
2018-12-21T15:25:14.164Z,44.83
2018-12-21T15:28:06.067Z,38.33
2018-12-21T15:30:48.209Z,37.70
2018-12-21T15:33:26.677Z,32.87
2018-12-21T15:38:37.598Z,38.57
2018-12-21T15:41:15.817Z,29.23
2018-12-21T15:44:02.056Z,30.97
2018-12-21T15:46:41.432Z,32.90
2018-12-21T15:49:16.753Z,59.63
2018-12-21T15:51:53.365Z,40.03
2018-12-21T15:54:27.711Z,49.53
2018-12-21T15:57:09.839Z,51.50
2018-12-21T16:02:32.469Z,42.97
2018-12-21T16:05:08.331Z,47.97
2018-12-21T16:07:38.613Z,37.63
2018-12-21T16:10:12.663Z,47.13
2018-12-21T16:12:45.350Z,38.33
2018-12-21T16:15:17.329Z,63.90
2018-12-21T16:17:55.533Z,46.40
2018-12-21T16:20:26.643Z,53.93
2018-12-21T16:23:00.349Z,54.40
2018-12-21T16:25:29.506Z,54.90
2018-12-21T16:28:15.541Z,46.23
2018-12-21T16:30:45.908Z,46.60
2018-12-21T16:33:24.893Z,50.77
2018-12-21T16:35:58.310Z,36.53
2018-12-21T16:38:40.536Z,39.77
2018-12-21T16:41:13.204Z,43.17
2018-12-21T16:43:57.010Z,35.27
2018-12-21T16:46:33.543Z,39.77
2018-12-21T16:49:13.822Z,43.30
2018-12-21T16:51:51.503Z,41.47
2018-12-21T16:57:12.361Z,45.50
2018-12-21T16:59:46.651Z,47.03
2018-12-21T17:05:51.136Z,42.07
2018-12-21T17:08:31.833Z,47.07
2018-12-21T17:11:09.767Z,33.13
2018-12-21T17:13:47.246Z,41.97
2018-12-21T17:16:26.371Z,25.20
2018-12-21T17:21:50.002Z,33.27
2018-12-21T17:24:53.641Z,24.57
2018-12-21T17:30:08.494Z,24.27
2018-12-21T17:32:41.629Z,9.90
2018-12-21T17:35:25.485Z,33.03
2018-12-21T17:37:55.236Z,15.40
2018-12-21T17:40:25.913Z,8.23
2018-12-21T17:43:01.022Z,9.00
2018-12-21T17:45:30.680Z,9.63
2018-12-21T17:48:00.834Z,14.90
2018-12-21T17:50:29.625Z,6.80
2018-12-21T17:52:59.798Z,8.83
2018-12-21T17:55:34.066Z,12.03
2018-12-21T17:58:16.122Z,11.53
2018-12-21T18:03:37.263Z,21.33
2018-12-21T18:06:17.397Z,12.60
2018-12-21T18:11:35.192Z,12.57
2018-12-21T18:14:12.466Z,12.03
2018-12-21T18:16:49.287Z,13.67
2018-12-21T18:19:31.343Z,9.30
2018-12-21T18:22:19.190Z,19.73
2018-12-21T18:24:57.444Z,11.33
2018-12-21T18:27:30.488Z,12.67
2018-12-21T18:30:01.489Z,7.73
2018-12-21T18:32:39.195Z,14.93
2018-12-21T18:38:05.593Z,22.63
2018-12-21T18:40:41.670Z,13.80
2018-12-21T18:43:18.752Z,6.40
2018-12-21T18:45:52.610Z,11.47
2018-12-21T18:48:51.521Z,25.57
2018-12-21T18:53:57.300Z,6.60
2018-12-21T18:56:46.969Z,2.80
2018-12-21T18:59:16.264Z,5.77
2018-12-21T19:02:01.591Z,5.10
2018-12-21T19:04:31.401Z,4.57
2018-12-21T19:07:10.801Z,4.80
2018-12-21T19:12:28.634Z,8.50
2018-12-21T19:15:03.045Z,9.33
2018-12-21T19:17:47.969Z,3.60
2018-12-21T19:23:08.952Z,3.23
2018-12-21T19:25:58.332Z,8.20
2018-12-21T19:37:12.194Z,14.00
2018-12-21T19:42:41.243Z,8.70
2018-12-21T19:48:15.145Z,6.37
2018-12-21T19:50:47.019Z,5.43
2018-12-21T19:53:17.156Z,7.13
2018-12-21T19:56:19.365Z,5.50
2018-12-21T19:59:00.421Z,6.87
2018-12-21T20:01:32.590Z,6.13
2018-12-21T20:04:10.570Z,9.43
2018-12-21T20:06:53.881Z,10.43
2018-12-21T20:09:42.750Z,7.40
2018-12-21T20:12:12.970Z,5.70
2018-12-21T20:14:51.923Z,5.67
2018-12-21T20:17:33.940Z,9.43
2018-12-21T20:25:55.406Z,5.13
2018-12-21T20:28:38.842Z,9.50
2018-12-21T20:31:12.682Z,3.63
2018-12-21T20:36:37.431Z,3.17
2018-12-21T20:39:33.089Z,3.53
2018-12-21T20:42:04.719Z,5.60
2018-12-21T20:47:39.508Z,5.30
2018-12-21T20:53:02.278Z,2.27
2018-12-21T21:01:37.026Z,10.30
2018-12-21T21:06:57.524Z,9.87
2018-12-21T21:09:33.220Z,4.00
2018-12-21T21:12:17.162Z,4.53
2018-12-21T21:14:53.317Z,6.40
2018-12-21T21:17:35.771Z,5.83
2018-12-21T21:20:15.414Z,7.90
2018-12-21T21:22:56.810Z,15.13
2018-12-21T21:25:26.993Z,13.33
2018-12-21T21:28:01.830Z,13.60
2018-12-21T21:30:37.084Z,9.17
2018-12-21T21:33:14.688Z,4.83
2018-12-21T21:38:51.515Z,2.10
2018-12-21T21:41:22.624Z,4.60
2018-12-21T21:46:53.604Z,8.80
2018-12-21T21:49:35.840Z,4.97
2018-12-21T21:54:56.212Z,8.43
2018-12-21T21:57:38.982Z,14.03
2018-12-21T22:02:49.257Z,6.93
2018-12-21T22:08:20.184Z,3.80
2018-12-21T22:10:52.019Z,14.33
2018-12-21T22:13:32.449Z,9.03
2018-12-21T22:21:35.192Z,7.97
2018-12-21T22:24:11.818Z,19.07
2018-12-21T22:26:50.460Z,7.97
2018-12-21T22:29:31.293Z,17.27
2018-12-21T22:34:57.747Z,17.27
2018-12-21T22:37:29.515Z,9.90
2018-12-21T22:40:13.461Z,11.73
2018-12-21T22:42:45.358Z,13.10
2018-12-21T22:45:27.733Z,10.87
2018-12-21T22:53:36.378Z,9.57
2018-12-21T22:56:11.346Z,6.17
2018-12-21T23:01:33.423Z,8.30
2018-12-21T23:04:12.025Z,8.00
2018-12-21T23:09:30.721Z,10.47
2018-12-21T23:12:04.196Z,9.73
2018-12-21T23:14:44.292Z,8.23
2018-12-21T23:28:20.470Z,10.47
2018-12-21T23:30:51.631Z,9.60
2018-12-21T23:33:22.864Z,14.70
2018-12-21T23:36:09.068Z,16.00
2018-12-21T23:38:53.102Z,13.97
2018-12-21T23:41:25.734Z,13.20
2018-12-21T23:44:10.790Z,15.13
2018-12-21T23:46:50.632Z,19.53
2018-12-21T23:49:30.428Z,15.90
2018-12-21T23:52:08.173Z,11.63
2018-12-21T23:54:40.276Z,14.03
2018-12-21T23:57:32.364Z,15.23
